Latest Coastal Weather Observations for Port Lincoln Airport

IDS60701

Issued at 11:21 am CST Saturday 19 August 2017 (issued every 10 minutes, with the page automatically refreshed every 10 minutes)

About coastal observations | Map of coastal stations | Coastal observations for SA | Marine services | Other Formats
Station Details ID: 018192 Name: PORT LINCOLN AWS Lat: -34.60 Lon: 135.88 Height: 8.5 m
Data from the previous 72 hours. | See also: Recent months at Port Lincoln Airport
Date/Time
CST
Temp
°C
Wind Pressure Rain since
9am
mm
Weather Cloud Vis
km
Sea
Height
m
Swell
Dir  Spd
kts
Gust
kts
hPa Trend Height
m
Period
s
Dir
19/11:00am 14.1 ESE 3 6 1030.2 - 0.0 - Partly cloudy 10 - - - -
19/10:30am 13.6 SE 4 5 1030.4 - 0.0 - Partly cloudy 10 - - - -
19/10:00am 13.7 NNW 3 5 1030.5 - 0.0 - Partly cloudy 10 - - - -
19/09:55am 13.9 NNW 4 5 1030.6 - 0.0 - Partly cloudy 10 - - - -
19/09:37am 13.1 NNW 3 5 1030.6 - 0.0 - Partly cloudy 5 - - - -
19/09:30am 12.4 NNW 3 4 1030.6 - 0.0 - Partly cloudy 10 - - - -
19/09:00am 9.2 NW 4 6 1030.5 - 0.0 - Mostly clear 10 - - - -
19/08:30am 9.3 NNW 5 7 1030.2 - 0.0 - Partly cloudy 10 - - - -
19/08:00am 7.4 NW 6 8 1030.1 - 0.0 - - 10 - - - -
19/07:30am 5.4 NW 8 9 1029.7 - 0.0 - - 10 - - - -
19/07:00am 4.6 NW 8 11 1029.3 - 0.0 - - 10 - - - -
19/06:30am 4.4 NW 6 8 1029.1 - 0.0 - - 10 - - - -
19/06:00am 4.9 NNW 7 8 1028.8 - 0.0 - - 10 - - - -
19/05:30am 5.6 NW 7 7 1028.5 - 0.0 - Partly cloudy 10 - - - -
19/05:00am 5.8 NNW 6 7 1028.3 - 0.0 - Partly cloudy 10 - - - -
19/04:30am 7.0 NW 6 8 1028.0 - 0.0 - Cloudy 10 - - - -
19/04:00am 6.9 NW 7 8 1028.0 - 0.0 - Cloudy 10 - - - -
19/03:30am 6.8 NNW 6 7 1028.0 - 0.0 - Cloudy 10 - - - -
19/03:00am 6.4 NW 6 7 1028.0 - 0.0 - Partly cloudy 10 - - - -
19/02:30am 6.2 NW 6 8 1028.3 - 0.0 - Partly cloudy 10 - - - -
19/02:00am 6.7 NW 8 9 1028.3 - 0.0 - Partly cloudy 10 - - - -
19/01:30am 6.1 NW 6 7 1028.3 - 0.0 - - 10 - - - -
19/01:00am 5.9 WNW 6 7 1028.2 - 0.0 - - 10 - - - -
19/12:30am 7.0 W 7 8 1028.3 - 0.0 - - 10 - - - -
19/12:00am 7.5 WSW 7 8 1028.2 - 0.0 - - 10 - - - -
 
Date/Time
CST
Temp
°C
Wind Pressure Rain since
9am
mm
Weather Cloud Vis
km
Sea
Height
m
Swell
Dir  Spd
kts
Gust
kts
hPa Trend Height
m
Period
s
Dir
18/11:30pm 7.2 W 7 8 1028.2 - 0.0 - - 10 - - - -
18/11:00pm 6.2 W 6 7 1028.3 - 0.0 - - 10 - - - -
18/10:30pm 6.4 WNW 5 6 1028.3 - 0.0 - - 10 - - - -
18/10:00pm 7.4 W 7 8 1028.3 - 0.0 - - 10 - - - -
18/09:30pm 7.7 WSW 8 9 1028.3 - 0.0 - - 10 - - - -
18/09:00pm 7.6 WSW 7 8 1028.2 - 0.0 - - 10 - - - -
18/08:30pm 7.9 WSW 7 8 1027.9 - 0.0 - Partly cloudy 10 - - - -
18/08:00pm 8.3 WSW 7 7 1027.8 - 0.0 - Partly cloudy 10 - - - -
18/07:30pm 8.4 WSW 7 8 1027.4 - 0.0 - Partly cloudy 10 - - - -
18/07:00pm 9.3 WSW 6 8 1027.3 - 0.0 - Partly cloudy 10 - - - -
18/06:30pm 10.1 WSW 6 7 1027.1 - 0.0 - Partly cloudy 10 - - - -
18/06:00pm 12.0 SW 7 9 1026.9 - 0.0 - Cloudy 10 - - - -
18/05:30pm 12.9 SW 10 13 1026.5 - 0.0 - Partly cloudy 10 - - - -
18/05:00pm 13.1 SW 9 14 1026.2 - 0.0 - Partly cloudy 10 - - - -
18/04:30pm 13.6 WSW 10 14 1025.9 - 0.0 - Partly cloudy 10 - - - -
18/04:00pm 13.5 SW 12 17 1025.8 - 0.0 - Partly cloudy 10 - - - -
18/03:30pm 14.4 WSW 12 17 1025.5 - 0.0 - Partly cloudy 10 - - - -
18/03:00pm 14.8 SW 13 19 1025.4 - 0.0 - Cloudy 10 - - - -
18/02:30pm 14.9 WSW 15 20 1025.1 - 0.0 - Partly cloudy 10 - - - -
18/02:00pm 14.0 SW 15 19 1025.2 - 0.0 - Partly cloudy 10 - - - -
18/01:30pm 14.1 WSW 15 22 1025.1 - 0.0 - Partly cloudy 10 - - - -
18/01:00pm 14.3 WSW 15 20 1025.1 - 0.0 - Partly cloudy 10 - - - -
18/12:30pm 14.8 WSW 17 24 1025.2 - 0.0 - Partly cloudy 10 - - - -
18/12:00pm 14.4 WSW 15 21 1025.4 - 0.0 - Partly cloudy 10 - - - -
18/11:30am 13.0 WSW 17 23 1025.5 - 0.0 - Partly cloudy 10 - - - -
18/11:00am 13.0 WSW 16 24 1025.5 - 0.0 - Partly cloudy 10 - - - -
18/10:30am 13.3 WSW 13 20 1025.2 - 0.0 - Partly cloudy 10 - - - -
18/10:01am 12.1 WSW 17 27 1025.0 - 0.0 - Partly cloudy 10 - - - -
18/10:00am 12.0 WSW 18 27 1024.9 - 0.0 - Partly cloudy 10 - - - -
18/09:52am 12.1 SW 15 27 1024.7 - 0.0 - Partly cloudy 10 - - - -
18/09:30am 12.9 SW 11 16 1024.6 - 0.0 - Partly cloudy 10 - - - -
18/09:00am 12.2 WSW 11 14 1024.0 - 3.0 - Partly cloudy 10 - - - -
18/08:30am 11.7 WSW 12 17 1023.4 - 3.0 - - 10 - - - -
18/08:00am 10.6 WSW 12 16 1022.8 - 3.0 - Partly cloudy 10 - - - -
18/07:30am 9.0 WSW 11 13 1022.2 - 3.0 - Partly cloudy 10 - - - -
18/07:00am 9.2 WSW 12 16 1021.8 - 3.0 - - 10 - - - -
18/06:30am 9.5 WSW 13 16 1021.4 - 3.0 - - 10 - - - -
18/06:00am 9.5 WSW 12 16 1021.1 - 3.0 - Partly cloudy 10 - - - -
18/05:30am 9.7 WSW 13 16 1020.6 - 3.0 - Partly cloudy 10 - - - -
18/05:07am 9.9 WSW 15 25 1020.3 - 3.0 - Partly cloudy 10 - - - -
18/05:00am 9.9 WSW 13 18 1020.2 - 3.0 - Partly cloudy 10 - - - -
18/04:30am 9.8 SW 12 16 1019.9 - 3.0 - Partly cloudy 10 - - - -
18/04:00am 9.5 WSW 12 16 1019.4 - 3.0 - Partly cloudy 10 - - - -
18/03:30am 9.4 WSW 14 18 1019.2 - 3.0 - - 10 - - - -
18/03:00am 9.4 WSW 14 20 1019.0 - 3.0 Recent precip. Cloudy 10 - - - -
18/02:30am 9.3 WSW 14 19 1018.9 - 2.8 - Partly cloudy 10 - - - -
18/02:00am 9.3 WSW 18 23 1018.9 - 2.8 - Partly cloudy 10 - - - -
18/01:45am 10.0 W 15 25 1018.9 - 2.8 - Partly cloudy 10 - - - -
18/01:30am 10.1 W 15 18 1018.5 - 2.8 - Partly cloudy 10 - - - -
18/01:00am 9.5 W 13 18 1018.2 - 2.8 - Partly cloudy 10 - - - -
18/12:31am 9.5 WSW 16 26 1018.0 - 2.8 - Partly cloudy 10 - - - -
18/12:30am 9.2 WSW 17 26 1018.0 - 2.8 - Partly cloudy 10 - - - -
18/12:20am 10.3 W 15 25 1018.1 - 2.8 - Partly cloudy 10 - - - -
18/12:00am 9.9 W 15 19 1017.5 - 2.8 - Partly cloudy 10 - - - -
 
Date/Time
CST
Temp
°C
Wind Pressure Rain since
9am
mm
Weather Cloud Vis
km
Sea
Height
m
Swell
Dir  Spd
kts
Gust
kts
hPa Trend Height
m
Period
s
Dir
17/11:30pm 10.3 W 16 21 1017.1 - 2.8 - Partly cloudy 10 - - - -
17/11:00pm 9.7 W 14 18 1016.9 - 2.8 - - 10 - - - -
17/10:30pm 9.4 WSW 15 21 1016.9 - 2.8 - Partly cloudy 10 - - - -
17/10:00pm 9.7 WSW 15 19 1016.5 - 2.8 - Partly cloudy 10 - - - -
17/09:30pm 10.3 W 16 22 1016.2 - 2.8 - Partly cloudy 10 - - - -
17/09:00pm 9.6 W 17 22 1015.9 - 2.6 Recent precip. Mostly clear 10 - - - -
17/08:30pm 9.7 W 21 27 1015.4 - 2.6 - Partly cloudy 10 - - - -
17/08:13pm 9.9 W 16 29 1015.5 - 2.6 - Partly cloudy 8 - - - -
17/08:00pm 9.9 W 16 21 1014.8 - 2.4 - Partly cloudy 10 - - - -
17/07:31pm 11.0 W 15 26 1014.4 - 2.4 - Partly cloudy 10 - - - -
17/07:30pm 10.6 W 14 25 1014.5 - 2.4 - Partly cloudy 10 - - - -
17/07:00pm 10.0 W 15 19 1013.8 - 2.4 - Partly cloudy 10 - - - -
17/06:30pm 9.6 W 16 21 1013.4 - 2.4 - - 10 - - - -
17/06:00pm 9.6 W 23 33 1013.1 - 2.4 Rain Mostly cloudy 8 - - - -
17/05:51pm 10.3 W 20 33 1013.2 - 2.2 - Partly cloudy 10 - - - -
17/05:30pm 10.0 W 19 27 1012.6 - 2.2 - Partly cloudy 10 - - - -
17/05:23pm 9.6 WSW 22 32 1012.4 - 2.2 - Partly cloudy 10 - - - -
17/05:21pm 9.6 WSW 24 33 1012.5 - 2.2 - Partly cloudy 10 - - - -
17/05:05pm 9.9 WSW 24 38 1011.9 - 2.0 - Partly cloudy 5 - - - -
17/05:01pm 10.7 WSW 20 37 1011.9 - 1.8 - Partly cloudy 10 - - - -
17/05:00pm 11.6 WSW 20 27 1011.9 - 1.6 - Partly cloudy 10 - - - -
17/04:46pm 11.6 W 17 29 1011.5 - 1.6 - Partly cloudy 10 - - - -
17/04:30pm 11.1 WNW 17 23 1011.3 - 1.6 - Partly cloudy 10 - - - -
17/04:17pm 10.6 W 20 27 1011.4 - 1.6 - Partly cloudy 10 - - - -
17/04:02pm 9.9 W 24 38 1011.5 - 1.6 - Partly cloudy 5 - - - -
17/04:00pm 9.9 W 24 38 1011.3 - 1.6 - Partly cloudy 5 - - - -
17/03:59pm 9.8 W 23 38 1011.3 - 1.6 - Partly cloudy 6 - - - -
17/03:58pm 10.0 W 21 38 1011.4 - 1.4 - Partly cloudy 8 - - - -
17/03:36pm 11.3 W 25 33 1010.9 - 1.2 - Partly cloudy 10 - - - -
17/03:30pm 11.1 WSW 27 39 1010.9 - 1.2 - Partly cloudy 10 - - - -
17/03:17pm 11.0 W 23 38 1010.6 - 1.0 - Partly cloudy 5 - - - -
17/03:16pm 12.1 W 22 36 1010.6 - 0.6 - Partly cloudy 10 - - - -
17/03:00pm 13.4 W 22 31 1010.2 - 0.4 - Cloudy 10 - - - -
17/02:53pm 12.9 W 20 31 1010.3 - 0.4 - Partly cloudy 10 - - - -
17/02:30pm 12.4 WSW 21 29 1010.1 - 0.4 - Partly cloudy 10 - - - -
17/02:00pm 14.0 W 29 40 1009.5 - 0.4 - Partly cloudy 10 - - - -
17/01:46pm 14.4 W 25 35 1009.5 - 0.4 - Partly cloudy 10 - - - -
17/01:30pm 13.9 W 25 34 1009.5 - 0.4 - Partly cloudy 10 - - - -
17/01:00pm 14.4 W 27 40 1009.4 - 0.4 - Partly cloudy 10 - - - -
17/12:36pm 13.7 W 22 33 1009.6 - 0.4 - Partly cloudy 10 - - - -
17/12:35pm 13.6 W 21 29 1009.6 - 0.4 - Partly cloudy 10 - - - -
17/12:30pm 13.1 W 22 32 1009.7 - 0.4 - Partly cloudy 10 - - - -
17/12:18pm 11.3 W 28 42 1010.0 - 0.4 - Partly cloudy 5 - - - -
17/12:07pm 15.1 W 25 35 1009.2 - 0.2 - Partly cloudy 10 - - - -
17/12:00pm 14.9 W 25 34 1009.3 - 0.2 - Mostly cloudy 10 - - - -
17/11:30am 15.2 W 23 35 1009.4 - 0.2 - Partly cloudy 10 - - - -
17/11:22am 14.4 WNW 25 35 1009.5 - 0.2 - Partly cloudy 10 - - - -
17/11:00am 15.0 WNW 25 31 1009.3 - 0.2 - Partly cloudy 10 - - - -
17/10:30am 13.6 WNW 20 31 1009.5 - 0.2 - - 10 - - - -
17/10:00am 13.3 WNW 18 24 1009.4 - 0.2 - - 10 - - - -
17/09:30am 12.2 W 19 26 1009.3 - 0.2 - Partly cloudy 10 - - - -
17/09:00am 13.4 WNW 15 21 1009.1 - 21.0 - Mostly cloudy 10 - - - -
17/08:30am 12.1 WNW 16 21 1008.8 - 21.0 - Partly cloudy 10 - - - -
17/08:00am 11.1 WNW 12 16 1008.7 - 21.0 - - 10 - - - -
17/07:30am 10.3 W 13 17 1008.4 - 20.8 - - 10 - - - -
17/07:00am 10.6 W 15 20 1008.2 - 20.8 - - 10 - - - -
17/06:30am 10.7 WNW 14 18 1007.7 - 20.8 - Partly cloudy 10 - - - -
17/06:05am 11.0 WNW 15 25 1007.3 - 20.8 - Partly cloudy 9 - - - -
17/06:00am 10.9 WNW 11 25 1007.2 - 20.8 - Mostly cloudy 10 - - - -
17/05:30am 10.1 WNW 10 12 1007.3 - 20.8 - - 10 - - - -
17/05:00am 10.5 WNW 12 15 1007.1 - 20.8 - - 10 - - - -
17/04:30am 10.6 WNW 14 20 1006.9 - 20.8 - - 10 - - - -
17/04:00am 10.6 WNW 17 23 1007.1 - 20.8 - Partly cloudy 10 - - - -
17/03:30am 10.6 W 21 31 1006.8 - 20.8 - Partly cloudy 9 - - - -
17/03:29am 10.6 WNW 21 31 1006.8 - 20.8 - Partly cloudy 9 - - - -
17/03:25am 10.4 WNW 22 31 1007.0 - 20.8 - Partly cloudy 6 - - - -
17/03:21am 10.5 WNW 19 29 1007.1 - 20.4 - Partly cloudy 6 - - - -
17/03:09am 10.8 W 18 27 1007.3 - 20.0 - Partly cloudy 5 - - - -
17/03:07am 10.9 W 17 27 1007.3 - 20.0 - Partly cloudy 7 - - - -
17/03:00am 10.9 WNW 16 23 1007.2 - 19.6 Rain Cloudy 7 - - - -
17/02:30am 10.7 WNW 19 25 1007.2 - 19.0 - Partly cloudy 9 - - - -
17/02:19am 10.6 W 23 29 1007.3 - 19.0 - Partly cloudy 10 - - - -
17/02:00am 11.3 WNW 22 29 1007.3 - 18.4 - Partly cloudy 4 - - - -
17/01:59am 11.3 WNW 21 29 1007.3 - 18.4 - Partly cloudy 4 - - - -
17/01:30am 11.6 WNW 18 26 1006.8 - 17.4 - Partly cloudy 10 - - - -
17/01:10am 10.7 WNW 21 29 1007.0 - 17.4 - Partly cloudy 10 - - - -
17/01:00am 10.8 WNW 25 40 1007.2 - 17.4 - Partly cloudy 5 - - - -
17/12:52am 11.3 WNW 22 40 1007.2 - 17.2 - Partly cloudy 5 - - - -
17/12:51am 11.3 WNW 21 40 1007.1 - 17.0 - Partly cloudy 7 - - - -
17/12:48am 11.7 WNW 17 27 1007.3 - 17.0 - Partly cloudy 10 - - - -
17/12:30am 11.6 WNW 17 26 1006.9 - 16.8 - Partly cloudy 10 - - - -
17/12:23am 11.5 WNW 17 24 1007.1 - 16.8 - Partly cloudy 10 - - - -
17/12:02am 11.2 WNW 19 32 1007.4 - 16.4 - Partly cloudy 4 - - - -
17/12:01am 11.6 WNW 19 32 1007.4 - 16.2 - Partly cloudy 8 - - - -
17/12:00am 12.1 WNW 19 28 1007.4 - 15.8 Rain Cloudy 10 - - - -
 
Date/Time
CST
Temp
°C
Wind Pressure Rain since
9am
mm
Weather Cloud Vis
km
Sea
Height
m
Swell
Dir  Spd
kts
Gust
kts
hPa Trend Height
m
Period
s
Dir
16/11:50pm 12.0 WNW 15 25 1007.0 - 15.6 - Partly cloudy 8 - - - -
16/11:47pm 12.0 WNW 13 18 1007.1 - 15.6 - Partly cloudy 10 - - - -
16/11:30pm 11.9 NW 15 21 1007.5 - 15.4 - Partly cloudy 5 - - - -
16/11:29pm 11.9 NW 15 21 1007.5 - 15.4 - Partly cloudy 5 - - - -
16/11:00pm 11.3 NW 15 20 1007.6 - 14.8 - Partly cloudy 7 - - - -
16/10:30pm 11.8 NW 12 16 1007.8 - 14.2 - Partly cloudy 9 - - - -
16/10:00pm 11.4 NW 13 16 1008.1 - 14.0 - Partly cloudy 10 - - - -
16/09:30pm 11.5 NW 13 17 1008.1 - 13.8 - Partly cloudy 10 - - - -
16/09:00pm 11.7 WNW 17 22 1008.0 - 13.8 Recent precip. Cloudy 10 - - - -
16/08:58pm 11.7 WNW 16 21 1008.0 - 13.8 - Partly cloudy 10 - - - -
16/08:30pm 11.6 WNW 18 24 1008.0 - 12.4 - Partly cloudy 2 - - - -
16/08:16pm 11.4 WNW 15 19 1007.9 - 9.0 - Partly cloudy 5 - - - -
16/08:00pm 11.6 WNW 15 20 1007.8 - 7.8 - Partly cloudy 10 - - - -
16/07:38pm 11.6 WNW 20 28 1007.7 - 7.4 - Partly cloudy 10 - - - -
16/07:30pm 11.4 WNW 19 26 1007.5 - 7.4 - Partly cloudy 7 - - - -
16/07:29pm 11.5 WNW 19 26 1007.5 - 7.4 - Partly cloudy 6 - - - -
16/07:06pm 11.8 W 16 27 1007.7 - 4.8 - Partly cloudy 10 - - - -
16/07:00pm 11.6 WNW 15 21 1007.3 - 4.6 - Partly cloudy 10 - - - -
16/06:51pm 11.4 W 21 31 1007.1 - 4.4 - Partly cloudy 2 - - - -
16/06:46pm 11.4 WNW 20 31 1007.2 - 3.0 - Partly cloudy 5 - - - -
16/06:44pm 12.1 WNW 18 28 1007.3 - 2.6 - Partly cloudy 10 - - - -
16/06:30pm 13.1 NW 16 21 1006.7 - 2.6 - Partly cloudy 10 - - - -
16/06:00pm 12.6 NW 15 22 1006.5 - 2.6 Recent precip. Cloudy 10 - - - -
16/05:56pm 12.5 NW 16 22 1006.6 - 2.6 - Partly cloudy 10 - - - -
16/05:36pm 12.7 WNW 19 27 1006.7 - 2.2 - Partly cloudy 5 - - - -
16/05:30pm 12.8 NW 19 26 1006.5 - 1.8 - Partly cloudy 9 - - - -
16/05:00pm 12.6 NW 20 26 1006.3 - 1.6 - Partly cloudy 10 - - - -
16/04:42pm 12.8 NW 20 30 1006.3 - 1.6 - Partly cloudy 8 - - - -
16/04:30pm 13.5 NW 21 28 1006.3 - 1.4 - Partly cloudy 10 - - - -
16/04:11pm 14.1 WNW 18 28 1006.0 - 1.4 - Partly cloudy 10 - - - -
16/04:00pm 13.6 WNW 18 24 1006.0 - 1.4 - Partly cloudy 10 - - - -
16/03:45pm 14.3 WNW 21 27 1006.1 - 1.4 - Partly cloudy 10 - - - -
16/03:30pm 13.3 WNW 20 26 1006.5 - 1.4 - Partly cloudy 2 - - - -
16/03:23pm 13.8 NW 21 29 1006.5 - 0.2 - Partly cloudy 5 - - - -
16/03:00pm 16.6 WNW 21 30 1005.8 - 0.0 - Mostly clear 10 - - - -
16/02:30pm 16.4 WNW 23 35 1005.7 - 0.0 - Partly cloudy 10 - - - -
16/02:01pm 16.8 NW 24 35 1005.6 - 0.0 - Partly cloudy 10 - - - -
16/02:00pm 17.0 NW 24 32 1005.6 - 0.0 - Partly cloudy 10 - - - -
16/01:30pm 16.5 WNW 22 30 1006.0 - 0.0 - Partly cloudy 10 - - - -
16/01:00pm 16.8 WNW 25 36 1006.2 - 0.0 - Partly cloudy 10 - - - -
16/12:54pm 16.6 WNW 24 36 1006.2 - 0.0 - Partly cloudy 10 - - - -
16/12:30pm 16.4 WNW 23 32 1006.5 - 0.0 - Partly cloudy 10 - - - -
16/12:00pm 16.7 WNW 23 33 1006.9 - 0.0 - Partly cloudy 10 - - - -
16/11:42am 16.4 WNW 24 37 1007.0 - 0.0 - Partly cloudy 10 - - - -
16/11:30am 16.6 WNW 25 33 1007.1 - 0.0 - Partly cloudy 10 - - - -
16/11:24am 16.2 WNW 23 33 1007.0 - 0.0 - Partly cloudy 10 - - - -

Other Formats:

Comma delimited format used in spreadsheet applications
http://www.bom.gov.au/fwo/IDS60701/IDS60701.95661.axf

JavaScript Object Notation format (JSON) in row-major order
http://www.bom.gov.au/fwo/IDS60701/IDS60701.95661.json